Time;durP1;ratioP1;P1;durP2;ratioP2;P2;SDS_P1;SDS_P2;PMS_P1;PMS_P2;Temp;Humidity;BMP_temperature;BMP_pressure;BME280_temperature;BME280_humidity;BME280_pressure;Samples;Min_cycle;Max_cycle;Signal;HPM_P1;HPM_P2
2022/10/21 00:00:24;;;;;;;6.60;4.60;;;;;;;9.80;100.00;99567.31;6069016;23;20172;-82
2022/10/21 00:02:57;;;;;;;5.77;4.60;;;;;;;9.77;100.00;99566.91;6117636;23;20185;-83
2022/10/21 00:05:25;;;;;;;5.57;4.80;;;;;;;9.75;100.00;99566.34;6069102;23;20172;-82
2022/10/21 00:07:52;;;;;;;5.20;4.30;;;;;;;9.67;100.00;99565.53;6107309;23;20188;-82
2022/10/21 00:10:19;;;;;;;6.37;4.77;;;;;;;9.68;100.00;99569.84;6074632;23;20183;-84
2022/10/21 00:13:20;;;;;;;4.80;4.30;;;;;;;9.60;100.00;99577.31;6124529;23;20153;-84
2022/10/21 02:42:58;;;;;;;6.10;5.33;;;;;;;8.35;100.00;99465.59;6070281;23;20213;-80
2022/10/21 02:45:25;;;;;;;7.73;5.80;;;;;;;8.38;100.00;99460.66;6043743;23;20279;-80
2022/10/21 02:47:52;;;;;;;6.93;5.57;;;;;;;8.50;100.00;99468.00;6068056;23;20682;-80
2022/10/21 02:50:18;;;;;;;7.77;5.53;;;;;;;8.46;100.00;99470.28;6067778;23;20208;-80
2022/10/21 02:52:45;;;;;;;6.30;5.70;;;;;;;8.38;100.00;99474.00;6067287;23;20204;-79
2022/10/21 02:55:12;;;;;;;7.40;5.70;;;;;;;8.34;100.00;99467.44;6066620;23;20205;-79
2022/10/21 02:57:38;;;;;;;8.23;5.77;;;;;;;8.37;100.00;99461.69;6069601;23;20213;-80
2022/10/21 03:00:06;;;;;;;6.83;5.63;;;;;;;8.33;100.00;99468.47;6069470;23;20232;-80
2022/10/21 03:02:33;;;;;;;9.27;6.20;;;;;;;8.35;100.00;99477.06;6045966;23;20204;-81
2022/10/21 03:04:59;;;;;;;7.73;5.60;;;;;;;8.39;100.00;99477.50;6069820;23;20240;-81
2022/10/21 03:07:26;;;;;;;8.73;6.00;;;;;;;8.28;100.00;99473.56;6044641;23;20205;-81
2022/10/21 03:09:52;;;;;;;6.57;5.63;;;;;;;8.26;100.00;99474.81;6073167;23;20223;-81
2022/10/21 03:12:19;;;;;;;6.97;5.73;;;;;;;8.35;100.00;99482.41;6072737;23;20220;-81
2022/10/21 03:14:45;;;;;;;6.37;5.77;;;;;;;8.20;100.00;99468.47;6022663;23;20284;-81
2022/10/21 03:17:12;;;;;;;6.20;5.60;;;;;;;8.32;100.00;99469.50;6048842;23;20587;-81
2022/10/21 03:19:39;;;;;;;6.77;5.73;;;;;;;8.27;100.00;99463.94;6072566;23;20212;-80
2022/10/21 03:22:05;;;;;;;8.70;5.67;;;;;;;8.25;100.00;99467.84;6071162;23;20209;-80
2022/10/21 03:24:32;;;;;;;8.73;6.00;;;;;;;8.12;100.00;99492.69;6071269;23;20211;-80
2022/10/21 03:26:58;;;;;;;6.60;5.37;;;;;;;8.10;100.00;99516.09;6045795;23;20560;-80
2022/10/21 03:29:25;;;;;;;6.97;5.47;;;;;;;8.02;100.00;99505.66;6068663;23;20216;-81
2022/10/21 03:31:51;;;;;;;6.40;5.43;;;;;;;8.00;100.00;99502.34;6046557;23;20213;-80
2022/10/21 03:34:18;;;;;;;6.73;6.03;;;;;;;7.92;100.00;99521.25;6071419;23;20217;-80
2022/10/21 03:36:45;;;;;;;6.53;5.53;;;;;;;8.02;100.00;99515.50;6046440;23;20256;-81
2022/10/21 03:39:11;;;;;;;7.57;5.43;;;;;;;7.94;100.00;99514.66;6072281;23;20200;-81
2022/10/21 03:41:38;;;;;;;6.63;5.93;;;;;;;8.08;100.00;99514.66;6071815;23;20210;-80
2022/10/21 03:44:05;;;;;;;7.77;5.57;;;;;;;7.98;100.00;99505.22;6046059;23;20607;-80
2022/10/21 03:46:31;;;;;;;6.93;6.27;;;;;;;7.86;100.00;99516.72;6070981;23;20210;-80
2022/10/21 03:48:58;;;;;;;8.67;6.20;;;;;;;7.86;100.00;99516.72;6071121;23;20213;-81
2022/10/21 03:51:31;;;;;;;6.93;6.20;;;;;;;7.90;100.00;99510.75;6070967;23;20262;-80
2022/10/21 03:53:57;;;;;;;8.00;6.33;;;;;;;7.85;100.00;99533.75;6070896;23;20681;-80
2022/10/21 03:56:24;;;;;;;6.97;6.27;;;;;;;7.87;100.00;99535.19;6070151;23;20726;-80
2022/10/21 03:58:50;;;;;;;7.80;5.77;;;;;;;7.78;100.00;99533.75;6071024;23;20213;-81
2022/10/21 04:01:23;;;;;;;7.60;6.20;;;;;;;7.81;100.00;99532.50;6045099;23;20285;-81
2022/10/21 04:03:50;;;;;;;6.50;5.77;;;;;;;7.86;100.00;99524.72;6071060;23;20205;-81
2022/10/21 04:06:17;;;;;;;7.53;6.00;;;;;;;7.63;100.00;99538.44;6069889;23;20209;-80
2022/10/21 04:08:43;;;;;;;7.73;6.00;;;;;;;7.75;100.00;99552.81;6070321;23;20256;-81
2022/10/21 04:11:10;;;;;;;6.33;5.73;;;;;;;7.57;100.00;99549.91;6044541;23;20211;-80
2022/10/21 04:13:37;;;;;;;8.20;5.90;;;;;;;7.52;100.00;99565.69;6069042;23;20209;-81
2022/10/21 04:16:05;;;;;;;9.60;5.70;;;;;;;7.50;100.00;99579.22;6070169;23;20265;-80
2022/10/21 04:18:33;;;;;;;8.00;6.07;;;;;;;7.47;100.00;99576.13;6044853;23;20209;-80
2022/10/21 04:20:59;;;;;;;7.07;6.37;;;;;;;7.50;100.00;99570.41;6045604;23;20216;-80
2022/10/21 04:23:26;;;;;;;7.37;6.40;;;;;;;7.40;100.00;99569.97;6070029;23;20255;-80
2022/10/21 04:25:53;;;;;;;7.20;5.80;;;;;;;7.37;100.00;99573.03;6070615;23;20220;-81
2022/10/21 04:28:19;;;;;;;6.73;6.07;;;;;;;7.42;100.00;99566.06;6044893;23;20212;-81
2022/10/21 04:30:46;;;;;;;6.50;5.87;;;;;;;7.33;100.00;99569.09;6070425;23;20213;-81
2022/10/21 04:33:12;;;;;;;8.13;5.83;;;;;;;7.33;100.00;99567.25;6045260;23;20209;-80
2022/10/21 04:35:39;;;;;;;6.50;5.90;;;;;;;7.29;100.00;99559.88;6071249;23;20217;-80
2022/10/21 04:38:06;;;;;;;6.27;5.67;;;;;;;7.30;100.00;99553.53;6046403;23;20284;-80
2022/10/21 04:40:33;;;;;;;8.33;6.23;;;;;;;7.30;100.00;99556.19;6046465;23;20215;-81
2022/10/21 04:42:59;;;;;;;6.73;6.10;;;;;;;7.25;100.00;99555.97;6071649;23;20231;-81
2022/10/21 04:45:26;;;;;;;7.57;6.30;;;;;;;7.19;100.00;99560.25;6046539;23;20204;-81
2022/10/21 04:47:53;;;;;;;8.13;6.47;;;;;;;7.14;100.00;99559.22;6071420;23;20209;-81
2022/10/21 04:50:19;;;;;;;7.03;6.13;;;;;;;7.13;100.00;99545.06;6070191;23;20209;-81
2022/10/21 04:52:46;;;;;;;8.27;6.33;;;;;;;7.17;100.00;99541.00;6070654;23;20217;-80
2022/10/21 04:55:12;;;;;;;8.33;7.10;;;;;;;7.25;100.00;99547.97;6044967;23;20205;-80
2022/10/21 04:57:39;;;;;;;8.40;6.27;;;;;;;7.13;100.00;99541.59;6070342;23;20288;-80
2022/10/21 05:00:06;;;;;;;8.20;6.53;;;;;;;7.04;100.00;99539.09;6045890;23;20212;-80
2022/10/21 05:02:33;;;;;;;9.53;6.83;;;;;;;7.02;100.00;99538.47;6073302;23;20208;-80
2022/10/21 05:05:00;;;;;;;9.30;6.67;;;;;;;7.00;100.00;99537.00;6072564;23;20666;-81
2022/10/21 05:07:26;;;;;;;7.10;6.37;;;;;;;7.04;100.00;99549.75;6046614;23;20524;-80
2022/10/21 05:09:53;;;;;;;6.93;6.03;;;;;;;6.99;100.00;99546.03;6071046;23;20700;-80
2022/10/21 05:12:19;;;;;;;7.10;6.40;;;;;;;6.91;100.00;99544.34;6071822;23;20532;-80
2022/10/21 05:14:46;;;;;;;7.70;6.07;;;;;;;6.84;100.00;99542.69;6046296;23;20205;-81
2022/10/21 05:17:12;;;;;;;9.07;6.90;;;;;;;6.83;100.00;99538.38;6071788;23;20524;-81
2022/10/21 05:19:39;;;;;;;7.10;6.37;;;;;;;6.79;100.00;99550.44;6047525;23;20217;-80
2022/10/21 05:22:06;;;;;;;6.90;6.20;;;;;;;6.73;100.00;99545.91;6072708;23;20212;-80
2022/10/21 05:24:32;;;;;;;6.80;6.10;;;;;;;6.77;100.00;99553.28;6072897;23;20666;-81
2022/10/21 05:26:59;;;;;;;8.03;6.57;;;;;;;6.66;100.00;99539.72;6047498;23;20219;-81
2022/10/21 05:29:25;;;;;;;6.43;5.80;;;;;;;6.73;100.00;99541.41;6072179;23;20216;-80
2022/10/21 05:31:52;;;;;;;7.50;6.70;;;;;;;6.67;100.00;99542.19;6072159;23;20211;-81
2022/10/21 05:34:18;;;;;;;8.07;6.77;;;;;;;6.64;100.00;99540.75;6072372;23;20220;-80
2022/10/21 05:36:47;;;;;;;6.97;6.27;;;;;;;6.67;100.00;99544.03;6048687;23;20209;-80
2022/10/21 05:39:14;;;;;;;7.53;6.70;;;;;;;6.60;100.00;99541.31;6048529;23;20674;-81
2022/10/21 05:41:40;;;;;;;7.40;6.50;;;;;;;6.68;100.00;99546.47;6074332;23;20208;-80
2022/10/21 05:44:12;;;;;;;10.20;6.33;;;;;;;6.74;100.00;99544.88;6072217;23;20212;-80
2022/10/21 05:46:39;;;;;;;6.93;5.97;;;;;;;6.75;100.00;99538.53;6073305;23;20237;-81
2022/10/21 05:49:06;;;;;;;8.30;6.03;;;;;;;6.74;100.00;99539.56;6072433;23;20219;-81
2022/10/21 05:51:33;;;;;;;7.60;6.77;;;;;;;6.75;100.00;99538.53;6071958;23;20703;-81
2022/10/21 05:54:01;;;;;;;8.33;6.37;;;;;;;6.79;100.00;99547.78;6046793;23;20544;-80
2022/10/21 05:56:28;;;;;;;8.93;6.80;;;;;;;6.75;100.00;99544.69;6072044;23;20208;-80
2022/10/21 05:58:54;;;;;;;8.43;7.30;;;;;;;6.85;100.00;99545.16;6073070;23;20208;-81
2022/10/21 06:01:21;;;;;;;7.77;6.83;;;;;;;6.87;100.00;99552.94;6073628;23;20201;-80
2022/10/21 06:03:48;;;;;;;8.00;6.90;;;;;;;6.93;100.00;99547.66;6025053;23;20224;-81
2022/10/21 06:06:14;;;;;;;8.17;7.20;;;;;;;7.04;100.00;99543.59;6073534;23;20205;-80
2022/10/21 06:08:41;;;;;;;9.27;7.07;;;;;;;7.09;100.00;99547.28;6047881;23;20228;-80
2022/10/21 06:11:11;;;;;;;7.50;6.80;;;;;;;7.16;100.00;99546.50;6072905;23;20269;-80
2022/10/21 06:13:37;;;;;;;7.57;6.83;;;;;;;7.30;100.00;99540.19;6047074;23;20709;-80
2022/10/21 06:16:05;;;;;;;7.83;6.80;;;;;;;7.44;100.00;99544.53;6045751;23;20204;-80
2022/10/21 06:18:37;;;;;;;9.07;7.70;;;;;;;7.55;100.00;99548.47;6071859;23;20650;-80
2022/10/21 06:21:04;;;;;;;8.10;7.00;;;;;;;7.71;100.00;99562.25;6072132;23;20210;-80
2022/10/21 06:23:32;;;;;;;7.57;6.77;;;;;;;7.93;100.00;99554.91;6072125;23;20204;-80
2022/10/21 06:25:59;;;;;;;7.57;6.73;;;;;;;8.02;100.00;99555.50;6045877;23;20682;-81
2022/10/21 06:28:28;;;;;;;8.10;6.90;;;;;;;8.10;100.00;99550.78;6070187;23;20271;-80
2022/10/21 06:30:54;;;;;;;7.17;6.43;;;;;;;8.28;100.00;99559.00;6074340;23;20208;-80
2022/10/21 06:33:21;;;;;;;8.10;7.10;;;;;;;8.45;100.00;99563.91;6045549;23;20268;-81
2022/10/21 06:35:53;;;;;;;8.80;6.67;;;;;;;8.60;100.00;99564.53;6046998;23;20662;-81
2022/10/21 06:38:20;;;;;;;8.50;7.10;;;;;;;8.75;100.00;99565.94;6045064;23;20221;-80
2022/10/21 06:40:47;;;;;;;9.37;7.43;;;;;;;8.92;100.00;99565.47;6021512;23;20204;-80
2022/10/21 06:43:15;;;;;;;10.47;7.27;;;;;;;9.10;100.00;99574.44;6069117;23;20208;-80
2022/10/21 06:45:41;;;;;;;8.07;6.73;;;;;;;9.36;100.00;99576.22;6044416;23;20595;-80
2022/10/21 06:48:08;;;;;;;9.93;6.63;;;;;;;9.53;100.00;99581.88;6020015;23;20213;-79
2022/10/21 06:50:38;;;;;;;9.47;7.00;;;;;;;9.63;100.00;99579.56;6044403;23;20268;-80
2022/10/21 06:53:05;;;;;;;8.93;6.93;;;;;;;9.75;100.00;99575.19;6085346;23;20240;-82
2022/10/21 06:55:33;;;;;;;7.37;6.63;;;;;;;9.95;100.00;99564.31;6065843;23;20169;-82
2022/10/21 06:58:02;;;;;;;8.70;7.10;;;;;;;10.11;100.00;99561.13;6065822;23;20176;-82
2022/10/21 07:00:29;;;;;;;8.77;6.90;;;;;;;10.14;100.00;99540.09;6086384;23;20859;-83
2022/10/21 07:03:01;;;;;;;10.07;7.10;;;;;;;10.22;100.00;99546.25;6089282;23;20216;-83
2022/10/21 07:05:34;;;;;;;7.50;6.77;;;;;;;10.27;100.00;99538.34;6064341;23;20220;-82
2022/10/21 07:08:02;;;;;;;8.23;6.57;;;;;;;10.42;100.00;99544.19;6062275;23;20700;-81
2022/10/21 07:10:29;;;;;;;8.20;6.93;;;;;;;10.24;100.00;99536.94;6062217;23;20204;-83
2022/10/21 08:48:46;;;;;;;6.97;4.80;;;;;;;13.85;71.00;99486.44;6088112;23;20705;-86
2022/10/21 08:51:29;;;;;;;7.67;4.53;;;;;;;14.19;70.05;99482.66;6071222;23;20213;-88
2022/10/21 08:54:00;;;;;;;6.87;4.73;;;;;;;14.25;68.22;99487.06;6071819;23;20243;-87
2022/10/21 08:56:29;;;;;;;7.63;4.90;;;;;;;14.46;67.55;99485.53;6071378;23;20742;-89
2022/10/21 08:58:56;;;;;;;6.60;4.87;;;;;;;14.52;66.80;99488.03;6066436;23;20218;-89
2022/10/21 09:01:34;;;;;;;7.97;5.27;;;;;;;14.63;66.88;99483.59;6018835;23;20209;-89
2022/10/21 09:04:09;;;;;;;7.03;4.47;;;;;;;14.57;65.41;99492.69;5994968;23;20208;-87
2022/10/21 09:06:54;;;;;;;7.23;4.70;;;;;;;14.36;65.46;99482.69;6019047;23;20271;-88
2022/10/21 09:09:31;;;;;;;7.73;5.17;;;;;;;14.33;65.99;99492.03;5995621;23;20213;-89
2022/10/21 09:12:01;;;;;;;5.80;4.80;;;;;;;14.47;65.66;99497.91;6019001;23;20245;-89
2022/10/21 09:14:57;;;;;;;5.80;5.20;;;;;;;14.40;65.20;99502.69;6018059;23;20235;-89
2022/10/21 09:17:37;;;;;;;6.90;5.13;;;;;;;14.37;64.30;99495.88;6065797;23;20212;-88
2022/10/21 09:20:13;;;;;;;6.13;5.10;;;;;;;14.38;64.44;99494.00;6040665;23;20223;-89
2022/10/21 09:22:56;;;;;;;10.13;5.00;;;;;;;14.03;64.64;99491.56;6065585;23;20217;-87
2022/10/21 09:25:47;;;;;;;7.00;4.53;;;;;;;14.07;64.99;99480.06;6018601;23;20214;-88
2022/10/21 09:28:15;;;;;;;7.67;5.33;;;;;;;14.01;64.79;99483.72;6017874;23;20232;-88
2022/10/21 09:30:43;;;;;;;6.40;5.40;;;;;;;14.07;65.05;99474.69;6041271;23;20279;-89
2022/10/21 09:33:21;;;;;;;8.50;5.07;;;;;;;14.10;65.57;99465.28;6018089;23;20279;-88
2022/10/21 09:35:52;;;;;;;7.07;4.70;;;;;;;14.19;64.53;99453.00;6041310;23;20224;-88
2022/10/21 09:38:24;;;;;;;6.47;5.27;;;;;;;14.05;64.59;99452.53;6041794;23;20224;-87
2022/10/21 09:40:58;;;;;;;6.87;5.10;;;;;;;14.30;64.49;99444.03;5995827;23;20221;-88
2022/10/21 09:43:25;;;;;;;5.47;4.97;;;;;;;14.11;64.22;99443.50;5995757;23;20280;-87
2022/10/21 09:45:52;;;;;;;7.77;5.10;;;;;;;14.13;64.02;99432.47;5994896;23;20284;-87
2022/10/21 09:48:19;;;;;;;7.13;5.43;;;;;;;14.20;64.79;99424.19;6017444;23;20249;-86
2022/10/21 09:50:48;;;;;;;7.87;5.13;;;;;;;13.98;65.02;99416.06;6018200;23;20202;-86
2022/10/21 09:53:26;;;;;;;7.27;5.10;;;;;;;14.10;65.93;99417.59;6018083;23;20220;-88
2022/10/21 09:56:16;;;;;;;7.40;5.13;;;;;;;14.09;65.26;99421.34;6018120;23;20675;-88
2022/10/21 09:58:44;;;;;;;7.13;5.33;;;;;;;14.10;64.54;99431.06;6017369;23;20201;-87
2022/10/21 10:01:21;;;;;;;7.87;5.60;;;;;;;14.06;64.55;99423.72;6018619;23;20662;-87
2022/10/21 10:03:50;;;;;;;6.83;4.97;;;;;;;13.74;64.70;99418.13;6024835;23;20205;-85
2022/10/21 10:09:50;;;;;;;6.50;5.10;;;;;;;14.13;64.54;99408.22;6075052;23;20208;-85
2022/10/21 10:12:21;;;;;;;6.97;4.97;;;;;;;14.27;64.09;99412.19;6045898;23;20266;-85
2022/10/21 10:14:49;;;;;;;6.23;5.13;;;;;;;14.29;63.93;99418.13;6070349;23;20665;-88
2022/10/21 10:17:24;;;;;;;6.93;5.03;;;;;;;14.51;63.25;99429.78;6046028;23;20923;-89
2022/10/21 10:20:18;;;;;;;6.23;5.30;;;;;;;14.24;62.84;99420.75;6070595;23;20259;-86
2022/10/21 10:23:04;;;;;;;6.47;5.30;;;;;;;14.34;63.57;99420.09;6071530;23;20725;-86
2022/10/21 10:25:36;;;;;;;5.73;5.07;;;;;;;14.30;63.54;99405.47;6070345;23;20220;-88
2022/10/21 10:28:09;;;;;;;6.50;5.20;;;;;;;14.62;63.54;99413.75;6095651;23;20209;-87
2022/10/21 10:30:41;;;;;;;6.33;5.27;;;;;;;14.76;63.00;99405.03;6093385;23;20713;-89
2022/10/21 10:33:14;;;;;;;11.03;5.30;;;;;;;14.89;62.24;99371.44;6069820;23;20271;-88
2022/10/21 10:35:56;;;;;;;5.70;5.13;;;;;;;15.03;61.70;99393.44;6070136;23;20217;-90
2022/10/21 10:38:34;;;;;;;7.77;4.80;;;;;;;15.21;61.27;99395.81;6046400;23;20678;-89
2022/10/21 10:41:10;;;;;;;8.03;5.33;;;;;;;15.26;60.94;99387.72;6045919;23;20685;-90
2022/10/21 10:43:43;;;;;;;7.37;4.90;;;;;;;15.11;60.63;99393.00;6044758;23;20296;-90
2022/10/21 10:46:18;;;;;;;7.27;5.50;;;;;;;15.28;61.02;99399.91;6091869;23;20270;-89
2022/10/21 10:48:48;;;;;;;7.03;5.40;;;;;;;15.34;60.57;99384.59;6045034;23;20217;-89
2022/10/21 10:51:34;;;;;;;8.67;5.03;;;;;;;15.30;60.44;99378.88;6045052;23;20240;-89
2022/10/21 10:54:22;;;;;;;6.90;5.20;;;;;;;15.19;60.48;99390.66;6045065;23;20240;-87
2022/10/21 10:57:12;;;;;;;5.53;4.80;;;;;;;15.59;60.19;99374.03;6021155;23;20218;-90
2022/10/21 11:00:05;;;;;;;8.00;5.37;;;;;;;15.80;59.48;99385.81;6044205;23;20297;-91
2022/10/21 11:03:00;;;;;;;6.70;4.97;;;;;;;15.88;58.82;99379.91;6043686;23;20706;-89
2022/10/21 11:05:38;;;;;;;5.87;5.10;;;;;;;15.64;59.57;99370.53;6045378;23;20217;-89
2022/10/21 11:08:14;;;;;;;6.13;5.40;;;;;;;15.76;59.35;99382.00;6021516;23;20636;-89
2022/10/21 11:10:44;;;;;;;6.30;5.37;;;;;;;15.70;59.08;99370.34;6068235;23;20232;-89
2022/10/21 11:13:14;;;;;;;7.13;5.00;;;;;;;15.67;60.45;99356.53;6044834;23;20269;-90
2022/10/21 11:16:00;;;;;;;6.93;5.13;;;;;;;15.67;59.96;99361.94;6044060;23;20219;-90
2022/10/21 11:18:33;;;;;;;7.10;5.63;;;;;;;15.72;60.28;99348.47;6045308;23;20217;-90
2022/10/21 11:21:09;;;;;;;8.50;5.50;;;;;;;15.84;60.63;99347.19;6045131;23;20243;-90
2022/10/21 11:23:39;;;;;;;5.80;5.20;;;;;;;16.02;59.76;99339.72;6045910;23;20270;-90
2022/10/21 11:26:58;;;;;;;6.80;5.00;;;;;;;15.92;59.23;99353.19;6068768;23;20216;-89
2022/10/21 11:29:47;;;;;;;5.77;4.83;;;;;;;15.84;58.94;99362.59;5968285;23;20227;-89
2022/10/21 11:32:23;;;;;;;5.27;4.70;;;;;;;16.17;58.46;99359.56;6069240;23;20241;-90
2022/10/21 11:35:02;;;;;;;6.33;4.97;;;;;;;16.24;58.45;99349.31;6045666;23;20226;-90
2022/10/21 11:37:56;;;;;;;6.13;4.90;;;;;;;16.05;58.50;99337.31;6022536;23;20204;-89
2022/10/21 11:40:30;;;;;;;7.10;4.73;;;;;;;15.95;58.74;99328.34;6004850;23;20207;-91
2022/10/21 11:43:05;;;;;;;6.17;4.73;;;;;;;15.94;58.92;99341.06;6069555;23;20211;-89
2022/10/21 11:45:44;;;;;;;6.43;5.07;;;;;;;16.01;58.29;99341.63;6045361;23;20218;-89
2022/10/21 11:48:32;;;;;;;6.57;4.90;;;;;;;16.21;58.55;99340.91;6045456;23;20208;-89
2022/10/21 11:51:22;;;;;;;7.50;5.17;;;;;;;16.07;58.66;99327.06;6045234;23;20683;-89
2022/10/21 11:54:11;;;;;;;5.43;4.93;;;;;;;16.18;58.33;99317.94;6045423;23;20241;-89
2022/10/21 11:56:59;;;;;;;5.30;4.80;;;;;;;16.07;58.55;99310.84;6045156;23;20237;-89
2022/10/21 11:59:40;;;;;;;7.20;5.47;;;;;;;16.14;58.29;99316.81;6045297;23;20219;-92
2022/10/21 12:02:32;;;;;;;7.97;5.10;;;;;;;15.94;58.85;99307.81;6090858;23;20222;-90
2022/10/21 12:05:02;;;;;;;6.43;5.33;;;;;;;15.85;59.07;99291.28;6075737;23;20207;-89
2022/10/21 12:07:45;;;;;;;6.10;5.10;;;;;;;15.82;59.47;99298.00;6044891;23;20636;-89
2022/10/21 12:10:24;;;;;;;6.93;5.57;;;;;;;15.59;60.13;99286.78;6020623;23;20214;-89
2022/10/21 12:12:53;;;;;;;7.50;5.57;;;;;;;15.58;60.06;99274.38;6045267;23;20244;-89
2022/10/21 12:15:26;;;;;;;5.77;4.90;;;;;;;15.60;60.09;99267.63;6045114;23;20217;-90
2022/10/21 12:17:54;;;;;;;5.60;4.90;;;;;;;15.66;59.88;99263.09;6045251;23;20611;-90
2022/10/21 12:20:24;;;;;;;6.53;5.20;;;;;;;15.64;59.82;99262.53;6020880;23;20704;-89
2022/10/21 12:22:57;;;;;;;6.10;5.47;;;;;;;15.57;60.24;99257.38;6045453;23;20215;-89
2022/10/21 12:25:34;;;;;;;6.70;5.77;;;;;;;15.39;60.40;99255.06;6021617;23;20215;-89
2022/10/21 12:28:15;;;;;;;7.27;5.30;;;;;;;15.64;60.19;99257.13;6068505;23;20268;-86
2022/10/21 12:30:54;;;;;;;7.90;5.23;;;;;;;15.62;60.53;99259.28;6068309;23;20663;-91
2022/10/21 12:33:40;;;;;;;11.67;6.43;;;;;;;15.69;60.04;99244.47;6070045;23;20232;-89
2022/10/21 12:36:17;;;;;;;8.30;6.00;;;;;;;15.67;60.78;99260.13;6068201;23;20222;-90
2022/10/21 12:38:57;;;;;;;8.93;5.73;;;;;;;15.55;60.81;99269.50;6069281;23;20228;-90
2022/10/21 12:41:35;;;;;;;6.53;5.17;;;;;;;15.50;61.33;99272.13;6045289;23;20265;-89
2022/10/21 12:44:02;;;;;;;6.40;5.80;;;;;;;15.47;61.74;99276.16;6068682;23;20313;-89
2022/10/21 12:46:41;;;;;;;6.73;5.70;;;;;;;15.29;62.36;99258.50;6068667;23;20220;-90
2022/10/21 12:49:19;;;;;;;7.13;5.43;;;;;;;15.32;63.16;99257.16;6045662;23;20210;-90
2022/10/21 12:52:08;;;;;;;7.47;5.93;;;;;;;15.27;63.51;99265.22;6069581;23;20212;-89
2022/10/21 12:54:46;;;;;;;6.67;5.83;;;;;;;15.28;63.58;99275.75;6068831;23;20213;-89
2022/10/21 12:57:33;;;;;;;7.50;6.20;;;;;;;15.29;63.78;99273.88;6069326;23;20212;-89
2022/10/21 13:00:22;;;;;;;6.43;5.80;;;;;;;15.45;63.66;99272.91;6045351;23;20245;-88
2022/10/21 13:03:06;;;;;;;7.00;6.30;;;;;;;15.69;62.86;99257.97;6093676;23;20719;-90
2022/10/21 13:05:36;;;;;;;8.87;6.50;;;;;;;15.84;62.71;99247.25;6045806;23;20266;-89
2022/10/21 13:08:18;;;;;;;9.10;6.20;;;;;;;15.95;62.47;99245.41;6044561;23;20269;-88
2022/10/21 13:11:07;;;;;;;7.17;6.27;;;;;;;15.92;62.04;99227.00;6093885;23;20664;-89
2022/10/21 13:13:45;;;;;;;7.30;6.13;;;;;;;15.93;62.61;99215.13;6050666;23;20209;-89
2022/10/21 13:16:14;;;;;;;7.00;6.30;;;;;;;16.06;62.13;99228.16;6044536;23;20228;-90
2022/10/21 13:18:54;;;;;;;8.00;6.53;;;;;;;16.02;62.20;99220.84;6068398;23;20214;-89
2022/10/21 13:21:30;;;;;;;11.00;6.77;;;;;;;16.08;61.95;99227.91;6070707;23;20215;-89
2022/10/21 13:24:14;;;;;;;8.13;6.40;;;;;;;16.15;61.64;99239.25;6070372;23;20240;-89
2022/10/21 13:26:50;;;;;;;7.33;6.57;;;;;;;16.15;61.77;99242.78;6093063;23;20211;-87
2022/10/21 13:29:27;;;;;;;10.07;6.77;;;;;;;16.17;62.03;99237.13;6023793;23;20553;-90
2022/10/21 13:32:12;;;;;;;8.80;6.67;;;;;;;15.94;62.42;99232.16;6095776;23;20294;-89
2022/10/21 13:34:55;;;;;;;6.87;6.23;;;;;;;15.56;62.97;99219.81;6095744;23;20659;-89
2022/10/21 13:37:29;;;;;;;8.33;6.87;;;;;;;15.52;63.79;99210.63;6046332;23;20211;-90
2022/10/21 13:39:59;;;;;;;7.67;6.03;;;;;;;15.45;63.98;99216.22;6070385;23;20227;-89
2022/10/21 13:42:31;;;;;;;6.90;6.10;;;;;;;15.39;64.37;99219.97;6045778;23;20221;-89
2022/10/21 13:45:14;;;;;;;10.13;6.60;;;;;;;15.31;64.67;99221.25;6045166;23;20232;-89
2022/10/21 13:47:41;;;;;;;7.70;6.47;;;;;;;15.27;65.19;99220.16;6046465;23;20288;-90
2022/10/21 13:50:27;;;;;;;7.83;6.73;;;;;;;15.21;65.15;99213.09;6069419;23;20302;-89
2022/10/21 13:52:54;;;;;;;6.67;5.97;;;;;;;15.20;65.51;99211.47;6047012;23;20231;-91
2022/10/21 13:55:24;;;;;;;8.43;6.40;;;;;;;15.20;65.61;99213.38;6022851;23;20215;-89
2022/10/21 13:57:53;;;;;;;9.60;6.60;;;;;;;15.07;65.59;99222.69;6070433;23;20266;-89
2022/10/21 14:00:26;;;;;;;8.73;6.90;;;;;;;15.11;66.29;99220.31;6069013;23;20272;-89
2022/10/21 14:03:00;;;;;;;8.63;6.50;;;;;;;15.00;67.11;99219.41;6069797;23;20214;-90
2022/10/21 14:05:29;;;;;;;13.67;7.37;;;;;;;14.99;67.16;99225.88;6046179;23;20222;-89
2022/10/21 14:07:56;;;;;;;9.13;7.10;;;;;;;14.83;68.06;99230.34;6069798;23;20219;-89
2022/10/21 14:10:23;;;;;;;8.60;7.70;;;;;;;14.74;68.38;99236.47;6045255;23;20209;-90
2022/10/21 14:12:50;;;;;;;8.50;7.70;;;;;;;14.67;68.58;99243.94;6093814;23;20209;-89
2022/10/21 14:15:20;;;;;;;11.40;8.23;;;;;;;14.62;69.18;99239.31;6046194;23;20668;-89
2022/10/21 14:17:51;;;;;;;12.03;8.53;;;;;;;14.60;68.96;99243.34;6046046;23;20431;-89
2022/10/21 14:20:28;;;;;;;9.97;7.93;;;;;;;14.55;69.58;99236.03;6045608;23;20742;-90
2022/10/21 14:22:55;;;;;;;8.63;7.73;;;;;;;14.53;70.26;99241.66;6070125;23;20212;-89
2022/10/21 14:25:22;;;;;;;8.13;7.33;;;;;;;14.46;70.02;99243.72;6069698;23;20210;-89
2022/10/21 14:27:48;;;;;;;9.20;6.87;;;;;;;14.28;70.57;99240.53;6046298;23;20276;-90
2022/10/21 14:30:24;;;;;;;8.30;7.00;;;;;;;14.32;70.21;99239.81;6093761;23;20739;-92
2022/10/21 14:32:51;;;;;;;7.73;6.67;;;;;;;14.23;70.82;99233.22;6046011;23;20677;-89
2022/10/21 14:35:17;;;;;;;11.40;7.17;;;;;;;14.25;71.32;99239.16;6069861;23;20224;-91
2022/10/21 14:37:54;;;;;;;8.70;7.30;;;;;;;14.18;71.56;99233.19;6069530;23;20214;-91
2022/10/21 14:40:40;;;;;;;8.77;7.40;;;;;;;14.09;72.10;99232.78;6044986;23;20555;-90
2022/10/21 14:43:20;;;;;;;9.57;6.77;;;;;;;14.08;72.99;99231.19;6093452;23;20217;-89
2022/10/21 14:45:49;;;;;;;7.70;6.93;;;;;;;13.96;73.45;99233.16;6046303;23;20582;-90
2022/10/21 14:48:24;;;;;;;10.10;7.70;;;;;;;13.97;73.62;99229.41;6045326;23;20750;-89
2022/10/21 14:51:01;;;;;;;8.13;6.73;;;;;;;13.85;74.39;99223.34;6095035;23;20364;-90
2022/10/21 14:53:34;;;;;;;8.83;6.80;;;;;;;13.78;74.57;99232.66;6069831;23;20223;-90
2022/10/21 14:56:03;;;;;;;8.53;6.57;;;;;;;13.73;75.58;99224.53;6044796;23;20296;-88
2022/10/21 14:58:33;;;;;;;9.97;7.40;;;;;;;13.66;76.55;99227.41;6021335;23;20674;-89
2022/10/21 15:01:04;;;;;;;10.30;7.43;;;;;;;13.52;77.74;99228.84;6045630;23;20252;-90
2022/10/21 15:03:43;;;;;;;8.70;7.67;;;;;;;13.45;78.69;99236.25;6022877;23;20243;-87
2022/10/21 15:06:17;;;;;;;8.40;7.50;;;;;;;13.39;79.76;99248.03;6069075;23;20216;-89
2022/10/21 15:09:05;;;;;;;9.43;8.03;;;;;;;13.37;80.60;99250.13;6094239;23;20212;-88
2022/10/21 15:11:39;;;;;;;9.83;7.77;;;;;;;13.32;81.72;99250.88;6043970;23;20271;-89
2022/10/21 15:14:11;;;;;;;9.03;7.57;;;;;;;13.21;83.53;99255.28;6068313;23;20559;-89
2022/10/21 15:16:53;;;;;;;10.80;8.20;;;;;;;13.17;84.31;99258.72;6068741;23;20216;-89
2022/10/21 15:19:36;;;;;;;12.43;7.70;;;;;;;13.18;85.47;99246.91;6069271;23;20236;-89
2022/10/21 15:22:04;;;;;;;8.40;7.60;;;;;;;13.04;87.00;99248.25;6068250;23;20208;-89
2022/10/21 15:24:41;;;;;;;8.87;7.97;;;;;;;13.05;87.73;99252.56;6045220;23;20205;-90
2022/10/21 15:27:16;;;;;;;10.60;8.23;;;;;;;12.91;89.27;99259.34;6060272;23;20231;-89
2022/10/21 15:29:45;;;;;;;9.80;8.80;;;;;;;12.96;89.87;99268.31;6094161;23;20680;-91
2022/10/21 15:32:17;;;;;;;12.23;8.37;;;;;;;12.83;91.46;99276.66;6044196;23;20216;-90
2022/10/21 15:34:45;;;;;;;10.40;8.63;;;;;;;12.85;93.20;99274.56;6070540;23;20215;-89
2022/10/21 15:37:11;;;;;;;12.47;10.90;;;;;;;12.80;93.28;99287.91;6044787;23;20208;-90
2022/10/21 15:39:38;;;;;;;11.57;9.50;;;;;;;12.74;94.56;99288.88;6045650;23;20338;-91
2022/10/21 15:42:04;;;;;;;12.33;9.07;;;;;;;12.65;97.13;99303.75;6067696;23;20213;-90
2022/10/21 15:44:32;;;;;;;11.23;10.10;;;;;;;12.65;97.83;99307.25;6045308;23;20224;-88
2022/10/21 15:47:01;;;;;;;12.83;9.83;;;;;;;12.59;98.25;99310.94;6044721;23;20532;-89
2022/10/21 15:49:48;;;;;;;10.80;8.40;;;;;;;12.53;100.00;99311.06;6021643;23;20740;-89
2022/10/21 15:52:14;;;;;;;9.50;8.60;;;;;;;12.45;100.00;99317.66;6068354;23;20241;-90
2022/10/21 15:54:41;;;;;;;11.13;8.80;;;;;;;12.51;100.00;99329.28;6022197;23;20209;-89
2022/10/21 15:57:18;;;;;;;12.17;10.00;;;;;;;12.47;100.00;99323.56;6093651;23;20304;-89
2022/10/21 15:59:46;;;;;;;10.37;9.33;;;;;;;12.35;100.00;99328.19;6045516;23;20208;-91
2022/10/21 16:02:14;;;;;;;9.67;8.67;;;;;;;12.37;100.00;99334.13;6044236;23;20224;-90